Watertown, SD (57201)

7:26 AM CDT on March 26, 2017 (GMT -0500)
212 And 81 | | Change Station
Active Advisory: Dense Fog Advisory

Elev 1722 ft 44.89 °N, 97.11 °W | Updated 16 seconds ago

Overcast
Overcast
34.2 °F
Feels Like 34 °F
N
1.7
Wind Variable Wind from ESE

Today
High -- | Low -- °F
--% Chance of Precip.
Yesterday
High -- | Low -- °F
Precip. -- in
Pressure 29.93 in
Visibility 4.0 miles
Clouds Overcast 300 ft
Windchill 34 °F
Dew Point 34 °F
Humidity 98%
Rainfall 0.00 in
Snow Depth Not available.
7:19 AM 7:48 PM
Waning Crescent, 3% visible
SPECI KATY 261210Z AUTO 06003KT 4SM BR OVC003 01/01 A2993 RMK AO2 T00110011
Pressure 29.93 in
Visibility 4.0 miles
Clouds Overcast 300 ft
Windchill 34 °F
Dew Point 34 °F
Humidity 98%
Rainfall 0.00 in
Snow Depth Not available.
7:19 AM 7:48 PM
Waning Crescent, 3% visible
SPECI KATY 261210Z AUTO 06003KT 4SM BR OVC003 01/01 A2993 RMK AO2 T00110011

Get Your Daily Forecast Email!

Thanks for signing up!

Be on the lookout for a verification email in your inbox.

You'll start receiving severe weather alerts in your inbox..

×

10-Day Weather Forecast

Almanac

Astronomy

Mar. 26, 2017 Rise Set
Actual Time
Civil Twilight
Nautical Twilight
Astronomical Twilight
Moon
Length of Visible Light
Length of Day
Tomorrow will be .
, % of the Moon is Illuminated

Today's Extremes

State Highs State Lows

Community

WunderPhotos

Upload Photos

1,962,540 photos uploaded!

WunderBlog® & News

Nearby

Air Quality

  Air Quality AQ Index Pollutant
Not available.

Snow Depth

Station Depth Elevation

Earthquake Activity

City Distance Mag. Time & Date
Minimum magnitude displayed is 2.5.

Earthquake Activity

City Distance Mag. Time & Date
Minimum magnitude displayed is 2.5.

Coastal Water Temperatures

Place Temperature

Stations

Nearby Weather Stations

Station Location Temp. Windchill Dew Point Humidity Wind Precip. Elev Updated Type
                   

Watches & Warnings

Dense Fog Advisory
Issued: 5:34 AM CDT Mar. 26, 2017 – National Weather Service

... Dense fog advisory in effect until 10 am CDT this morning...

The National Weather Service in Aberdeen has issued a dense fog
advisory, which is in effect until 10 am CDT this morning.

* Visibilities... a quarter mile or less at times.

* Timing... through the morning hours.

* Impacts... limited visibilities will make travel very difficult.

Precautionary/preparedness actions...

A dense fog advisory means visibilities will frequently be
reduced to less than one quarter mile. If driving, slow down, use
your headlights, and leave plenty of distance ahead of you.



Connelly